createdAt,value
2022-08-25T00:00:27.547Z,20.10
2022-08-25T00:02:55.531Z,20.10
2022-08-25T00:05:20.349Z,20.10
2022-08-25T00:07:45.324Z,20.10
2022-08-25T00:10:11.357Z,20.10
2022-08-25T00:12:35.110Z,20.10
2022-08-25T00:14:58.998Z,20.10
2022-08-25T00:17:22.674Z,20.00
2022-08-25T00:19:46.390Z,20.00
2022-08-25T00:22:10.225Z,19.90
2022-08-25T00:24:33.950Z,19.90
2022-08-25T00:27:01.912Z,19.90
2022-08-25T00:29:27.435Z,19.80
2022-08-25T00:31:52.447Z,19.80
2022-08-25T00:34:20.059Z,19.80
2022-08-25T00:36:44.343Z,19.80
2022-08-25T00:39:09.803Z,19.80
2022-08-25T00:41:35.342Z,19.80
2022-08-25T00:44:04.412Z,19.80
2022-08-25T00:46:31.985Z,19.70
2022-08-25T00:49:01.262Z,19.70
2022-08-25T00:51:33.850Z,19.70
2022-08-25T00:53:58.359Z,19.70
2022-08-25T00:56:22.282Z,19.70
2022-08-25T00:58:46.214Z,19.60
2022-08-25T01:01:11.802Z,19.60
2022-08-25T01:03:35.994Z,19.60
2022-08-25T01:05:59.680Z,19.60
2022-08-25T01:08:29.123Z,19.60
2022-08-25T01:10:53.469Z,19.50
2022-08-25T01:13:21.516Z,19.50
2022-08-25T01:15:45.800Z,19.50
2022-08-25T01:18:11.923Z,19.50
2022-08-25T01:20:35.734Z,19.50
2022-08-25T01:23:02.268Z,19.50
2022-08-25T01:25:36.403Z,19.50
2022-08-25T01:28:00.167Z,19.50
2022-08-25T01:30:24.062Z,19.50
2022-08-25T01:32:48.093Z,19.50
2022-08-25T01:35:11.743Z,19.50
2022-08-25T01:37:36.022Z,19.50
2022-08-25T01:40:01.110Z,19.50
2022-08-25T01:42:43.751Z,19.40
2022-08-25T01:45:10.362Z,19.40
2022-08-25T01:47:34.279Z,19.40
2022-08-25T01:49:57.960Z,19.40
2022-08-25T01:52:26.804Z,19.40
2022-08-25T01:54:50.483Z,19.30
2022-08-25T01:57:15.503Z,19.30
2022-08-25T01:59:39.364Z,19.30
2022-08-25T02:02:04.935Z,19.30
2022-08-25T02:04:32.324Z,19.30
2022-08-25T02:06:56.170Z,19.30
2022-08-25T02:09:20.110Z,19.30
2022-08-25T02:11:46.931Z,19.30
2022-08-25T02:14:14.159Z,19.20
2022-08-25T02:16:41.493Z,19.20
2022-08-25T02:19:07.628Z,19.20
2022-08-25T02:21:32.557Z,19.20
2022-08-25T02:23:56.923Z,19.20
2022-08-25T02:26:21.147Z,19.10
2022-08-25T02:28:46.166Z,19.10
2022-08-25T02:31:11.391Z,19.10
2022-08-25T02:33:35.149Z,19.10
2022-08-25T02:36:00.458Z,19.10
2022-08-25T02:38:24.094Z,19.10
2022-08-25T02:40:47.719Z,19.10
2022-08-25T02:43:11.541Z,19.00
2022-08-25T02:45:35.328Z,19.00
2022-08-25T02:48:00.513Z,19.00
2022-08-25T02:50:24.956Z,19.00
2022-08-25T02:52:50.700Z,19.00
2022-08-25T02:55:14.748Z,19.00
2022-08-25T02:57:38.465Z,19.00
2022-08-25T03:00:02.083Z,18.90
2022-08-25T03:02:26.054Z,18.90
2022-08-25T03:04:52.292Z,18.90
2022-08-25T03:07:19.158Z,18.90
2022-08-25T03:09:45.035Z,18.90
2022-08-25T03:12:09.731Z,18.90
2022-08-25T03:14:33.371Z,18.90
2022-08-25T03:16:57.170Z,18.80
2022-08-25T03:19:20.883Z,18.80
2022-08-25T03:21:46.242Z,18.80
2022-08-25T03:24:10.254Z,18.80
2022-08-25T03:26:51.711Z,18.80
2022-08-25T03:29:15.416Z,18.80
2022-08-25T03:31:40.095Z,18.80
2022-08-25T03:34:04.240Z,18.70
2022-08-25T03:36:28.899Z,18.70
2022-08-25T03:38:55.153Z,18.80
2022-08-25T03:41:22.578Z,18.80
2022-08-25T03:43:47.547Z,18.80
2022-08-25T03:46:20.618Z,18.80
2022-08-25T03:48:44.515Z,18.80
2022-08-25T03:51:08.335Z,18.80
2022-08-25T03:53:31.983Z,18.80
2022-08-25T03:55:57.752Z,18.80
2022-08-25T03:58:21.385Z,18.80
2022-08-25T04:00:45.131Z,18.80
2022-08-25T04:03:08.974Z,18.80
2022-08-25T04:05:32.966Z,18.70
2022-08-25T04:07:57.041Z,18.70
2022-08-25T04:10:20.880Z,18.70
2022-08-25T04:12:45.882Z,18.70
2022-08-25T04:15:11.540Z,18.70
2022-08-25T04:17:35.752Z,18.70
2022-08-25T04:19:59.450Z,18.60
2022-08-25T04:22:23.218Z,18.60
2022-08-25T04:24:47.112Z,18.60
2022-08-25T04:27:10.819Z,18.60
2022-08-25T04:29:36.542Z,18.60
2022-08-25T04:32:00.317Z,18.60
2022-08-25T04:34:31.106Z,18.60
2022-08-25T04:36:55.311Z,18.80
2022-08-25T04:39:20.864Z,18.70
2022-08-25T04:41:44.876Z,18.70
2022-08-25T04:44:08.551Z,18.70
2022-08-25T04:46:35.673Z,18.70
2022-08-25T04:49:01.301Z,18.70
2022-08-25T04:51:27.713Z,18.70
2022-08-25T04:53:52.085Z,18.70
2022-08-25T04:56:20.918Z,18.70
2022-08-25T04:58:46.368Z,18.70
2022-08-25T05:01:15.656Z,18.80
2022-08-25T05:03:40.787Z,18.80
2022-08-25T05:06:06.205Z,18.90
2022-08-25T05:08:30.288Z,18.90
2022-08-25T05:10:56.702Z,18.90
2022-08-25T05:13:20.766Z,19.00
2022-08-25T05:15:53.089Z,19.10
2022-08-25T05:18:18.219Z,19.10
2022-08-25T05:20:43.419Z,19.10
2022-08-25T05:23:07.303Z,19.10
2022-08-25T05:25:31.879Z,19.10
2022-08-25T05:27:55.602Z,19.20
2022-08-25T05:30:19.450Z,19.20
2022-08-25T05:32:43.194Z,19.20
2022-08-25T05:35:09.093Z,19.20
2022-08-25T05:37:35.132Z,19.30
2022-08-25T05:39:58.947Z,19.30
2022-08-25T05:42:24.072Z,19.40
2022-08-25T05:44:48.140Z,19.30
2022-08-25T05:47:11.960Z,19.40
2022-08-25T05:49:35.636Z,19.40
2022-08-25T05:51:59.301Z,19.50
2022-08-25T05:54:24.385Z,19.50
2022-08-25T05:56:48.186Z,19.50
2022-08-25T05:59:11.864Z,19.50
2022-08-25T06:01:52.848Z,19.50
2022-08-25T06:04:17.954Z,19.50
2022-08-25T06:06:42.230Z,19.60
2022-08-25T06:09:08.809Z,19.50
2022-08-25T06:11:33.838Z,19.60
2022-08-25T06:13:57.617Z,19.50
2022-08-25T06:16:21.322Z,19.60
2022-08-25T06:18:45.111Z,19.60
2022-08-25T06:21:14.225Z,19.60
2022-08-25T06:23:39.539Z,19.60
2022-08-25T06:26:03.590Z,19.60
2022-08-25T06:28:28.707Z,19.70
2022-08-25T06:30:52.367Z,19.60
2022-08-25T06:33:16.487Z,19.60
2022-08-25T06:35:43.646Z,19.70
2022-08-25T06:38:07.427Z,19.70
2022-08-25T06:40:31.307Z,19.70
2022-08-25T06:42:55.048Z,19.80
2022-08-25T06:45:21.093Z,19.90
2022-08-25T06:47:45.606Z,19.90
2022-08-25T06:50:10.431Z,19.90
2022-08-25T06:52:35.713Z,20.00
2022-08-25T06:54:59.515Z,20.00
2022-08-25T06:57:23.251Z,20.10
2022-08-25T06:59:47.276Z,20.20
2022-08-25T07:02:12.491Z,20.20
2022-08-25T07:04:39.564Z,20.20
2022-08-25T07:07:04.131Z,20.30
2022-08-25T07:09:27.931Z,20.40
2022-08-25T07:11:52.460Z,20.40
2022-08-25T07:14:18.701Z,20.50
2022-08-25T07:16:48.510Z,20.50
2022-08-25T07:19:14.765Z,20.60
2022-08-25T07:21:41.422Z,20.80
2022-08-25T07:24:09.229Z,20.80
2022-08-25T07:26:37.685Z,20.80
2022-08-25T07:29:02.515Z,20.80
2022-08-25T07:31:29.378Z,20.80
2022-08-25T07:34:10.823Z,20.80
2022-08-25T07:36:38.363Z,20.90
2022-08-25T07:39:05.982Z,20.90
2022-08-25T07:41:30.811Z,21.00
2022-08-25T07:43:56.994Z,21.20
2022-08-25T07:46:20.851Z,21.30
2022-08-25T07:48:44.609Z,21.40
2022-08-25T07:51:17.843Z,21.50
2022-08-25T07:53:43.644Z,21.50
2022-08-25T07:56:12.540Z,21.50
2022-08-25T07:58:36.215Z,21.60
2022-08-25T08:00:59.900Z,21.60
2022-08-25T08:03:44.693Z,21.60
2022-08-25T08:06:10.608Z,21.80
2022-08-25T08:08:34.424Z,21.90
2022-08-25T08:11:04.496Z,21.90
2022-08-25T08:13:28.935Z,22.10
2022-08-25T08:15:52.627Z,22.20
2022-08-25T08:18:17.069Z,22.30
2022-08-25T08:20:45.337Z,22.40
2022-08-25T08:23:09.083Z,22.50
2022-08-25T08:25:32.821Z,22.50
2022-08-25T08:27:58.451Z,22.50
2022-08-25T08:30:23.705Z,22.50
2022-08-25T08:33:09.073Z,22.40
2022-08-25T08:35:33.636Z,22.40
2022-08-25T08:37:57.326Z,22.50
2022-08-25T08:40:22.394Z,22.50
2022-08-25T08:43:04.086Z,22.60
2022-08-25T08:45:35.628Z,22.60
2022-08-25T08:48:36.953Z,22.70
2022-08-25T08:51:12.643Z,22.70
2022-08-25T08:53:45.489Z,22.80
2022-08-25T08:56:15.896Z,23.00
2022-08-25T08:58:50.093Z,23.20
2022-08-25T09:01:19.232Z,23.30
2022-08-25T09:03:47.764Z,23.40
2022-08-25T09:06:26.016Z,23.60
2022-08-25T09:08:50.008Z,23.70
2022-08-25T09:11:23.369Z,23.70
2022-08-25T09:14:10.662Z,23.80
2022-08-25T09:16:56.084Z,23.70
2022-08-25T09:19:48.417Z,23.70
2022-08-25T09:22:35.682Z,23.80
2022-08-25T09:25:16.341Z,23.80
2022-08-25T09:27:56.030Z,23.90
2022-08-25T09:30:25.184Z,23.80
2022-08-25T09:32:52.494Z,24.00
2022-08-25T09:35:21.444Z,24.00
2022-08-25T09:37:53.560Z,24.10
2022-08-25T09:40:17.705Z,24.10
2022-08-25T09:42:57.668Z,24.10
2022-08-25T09:45:39.592Z,24.00
2022-08-25T09:48:23.914Z,24.30
2022-08-25T09:50:47.964Z,24.50
2022-08-25T09:53:18.930Z,24.70
2022-08-25T09:55:48.511Z,24.70
2022-08-25T09:58:22.266Z,24.60
2022-08-25T10:01:14.232Z,24.60
2022-08-25T10:03:38.385Z,24.70
2022-08-25T10:06:13.260Z,24.90
2022-08-25T10:08:42.554Z,24.70
2022-08-25T10:11:10.151Z,24.60
2022-08-25T10:13:44.973Z,24.50
2022-08-25T10:16:24.291Z,24.80
2022-08-25T10:19:04.495Z,24.90
2022-08-25T10:21:28.250Z,24.90
2022-08-25T10:23:55.976Z,25.00
2022-08-25T10:26:34.791Z,25.30
2022-08-25T10:29:24.435Z,25.60
2022-08-25T10:31:58.229Z,25.70
2022-08-25T10:34:36.243Z,26.00
2022-08-25T10:37:15.359Z,26.20
2022-08-25T10:39:46.213Z,26.20
2022-08-25T10:42:33.858Z,26.40
2022-08-25T10:45:38.364Z,26.20
2022-08-25T10:48:46.643Z,26.20
2022-08-25T10:51:42.876Z,26.20
2022-08-25T10:54:18.943Z,25.90
2022-08-25T10:56:46.983Z,26.00
2022-08-25T10:59:34.708Z,26.10
2022-08-25T11:02:36.187Z,26.40
2022-08-25T11:05:07.899Z,26.60
2022-08-25T11:07:35.815Z,26.60
2022-08-25T11:10:05.345Z,26.80
2022-08-25T11:12:35.052Z,26.80
2022-08-25T11:15:02.677Z,26.90
2022-08-25T11:17:36.395Z,27.20
2022-08-25T11:20:15.295Z,27.10
2022-08-25T11:22:59.144Z,27.10
2022-08-25T11:25:30.367Z,27.50
2022-08-25T11:28:01.016Z,27.40
2022-08-25T11:30:25.920Z,27.30
2022-08-25T11:32:53.587Z,27.60
2022-08-25T11:35:21.663Z,27.60
2022-08-25T11:38:04.690Z,27.40
2022-08-25T11:40:45.576Z,27.60
2022-08-25T11:43:47.719Z,27.80
2022-08-25T11:46:32.714Z,27.90
2022-08-25T11:49:09.412Z,27.90
2022-08-25T11:51:42.504Z,27.90
2022-08-25T11:54:21.860Z,28.20
2022-08-25T11:56:55.087Z,28.40
2022-08-25T12:00:03.694Z,28.40
2022-08-25T12:02:36.443Z,28.50
2022-08-25T12:05:00.669Z,28.80
2022-08-25T12:07:32.179Z,29.00
2022-08-25T12:10:57.026Z,28.90
2022-08-25T12:13:45.140Z,29.00
2022-08-25T12:16:38.334Z,29.20
2022-08-25T12:19:49.833Z,29.10
2022-08-25T12:22:55.790Z,28.80
2022-08-25T12:25:47.419Z,29.00
2022-08-25T12:28:35.022Z,29.00
2022-08-25T12:31:05.824Z,28.90
2022-08-25T12:33:47.407Z,28.80
2022-08-25T12:36:31.124Z,29.00
2022-08-25T12:38:54.931Z,29.00
2022-08-25T12:41:24.166Z,29.20
2022-08-25T12:43:50.679Z,29.50
2022-08-25T12:46:40.570Z,29.70
2022-08-25T12:49:14.344Z,29.50
2022-08-25T12:51:57.495Z,29.40
2022-08-25T12:54:37.837Z,29.20
2022-08-25T12:57:05.211Z,29.20
2022-08-25T12:59:37.418Z,29.40
2022-08-25T13:02:37.460Z,29.80
2022-08-25T13:05:40.801Z,29.70
2022-08-25T13:08:57.633Z,29.70
2022-08-25T13:11:29.367Z,29.90
2022-08-25T13:14:06.589Z,29.40
2022-08-25T13:16:31.338Z,29.60
2022-08-25T13:18:59.015Z,29.70
2022-08-25T13:21:31.458Z,29.80
2022-08-25T13:24:04.700Z,29.90
2022-08-25T13:26:32.543Z,30.20
2022-08-25T13:29:05.166Z,30.40
2022-08-25T13:31:32.525Z,30.30
2022-08-25T13:33:59.524Z,30.10
2022-08-25T13:36:47.122Z,30.10
2022-08-25T13:39:38.992Z,29.90
2022-08-25T13:42:09.248Z,29.40
2022-08-25T13:44:39.035Z,29.30
2022-08-25T13:47:11.888Z,29.10
2022-08-25T13:49:35.963Z,29.40
2022-08-25T13:52:01.055Z,29.50
2022-08-25T13:54:31.346Z,29.60
2022-08-25T13:56:55.845Z,29.20
2022-08-25T13:59:27.375Z,28.90
2022-08-25T14:01:52.438Z,28.80
2022-08-25T14:04:51.754Z,28.80
2022-08-25T14:07:34.176Z,29.00
2022-08-25T14:10:01.593Z,29.10
2022-08-25T14:12:37.968Z,29.20
2022-08-25T14:15:07.871Z,28.80
2022-08-25T14:17:40.670Z,28.90
2022-08-25T14:20:05.862Z,29.10
2022-08-25T14:22:30.924Z,29.20
2022-08-25T14:24:56.170Z,29.40
2022-08-25T14:27:20.204Z,29.40
2022-08-25T14:29:43.985Z,29.30
2022-08-25T14:32:08.360Z,29.20
2022-08-25T14:34:38.659Z,29.00
2022-08-25T14:37:04.821Z,29.10
2022-08-25T14:39:30.284Z,28.90
2022-08-25T14:41:54.207Z,28.80
2022-08-25T14:44:18.363Z,29.00
2022-08-25T14:46:47.890Z,29.20
2022-08-25T14:49:17.275Z,29.20
2022-08-25T14:51:49.290Z,29.20
2022-08-25T14:54:18.634Z,29.10
2022-08-25T14:56:44.344Z,28.80
2022-08-25T14:59:08.187Z,28.60
2022-08-25T15:01:32.585Z,28.60
2022-08-25T15:04:02.485Z,28.60
2022-08-25T15:06:26.397Z,28.70
2022-08-25T15:09:08.144Z,28.60
2022-08-25T15:11:35.349Z,28.70
2022-08-25T15:14:01.583Z,28.70
2022-08-25T15:16:34.079Z,28.70
2022-08-25T15:18:59.171Z,28.60
2022-08-25T15:21:22.975Z,28.50
2022-08-25T15:23:46.787Z,28.50
2022-08-25T15:26:15.192Z,28.50
2022-08-25T15:28:39.302Z,28.40
2022-08-25T15:31:04.423Z,28.30
2022-08-25T15:33:32.121Z,28.30
2022-08-25T15:35:56.706Z,28.30
2022-08-25T15:38:20.738Z,28.30
2022-08-25T15:40:44.455Z,28.20
2022-08-25T15:43:11.044Z,28.10
2022-08-25T15:45:36.070Z,28.10
2022-08-25T15:48:01.512Z,28.00
2022-08-25T15:50:27.904Z,27.90
2022-08-25T15:52:51.683Z,27.90
2022-08-25T15:55:16.428Z,27.80
2022-08-25T15:57:40.439Z,27.80
2022-08-25T16:00:10.058Z,27.70
2022-08-25T16:02:34.788Z,27.70
2022-08-25T16:04:59.859Z,27.70
2022-08-25T16:07:23.623Z,27.60
2022-08-25T16:09:48.224Z,27.60
2022-08-25T16:12:14.983Z,27.50
2022-08-25T16:14:39.543Z,27.40
2022-08-25T16:17:03.236Z,27.40
2022-08-25T16:19:27.552Z,27.40
2022-08-25T16:21:52.676Z,27.40
2022-08-25T16:24:16.492Z,27.40
2022-08-25T16:26:47.957Z,27.40
2022-08-25T16:29:14.522Z,27.30
2022-08-25T16:31:38.460Z,27.30
2022-08-25T16:34:02.496Z,27.30
2022-08-25T16:36:28.080Z,27.20
2022-08-25T16:38:54.039Z,27.20
2022-08-25T16:41:22.369Z,27.20
2022-08-25T16:43:46.291Z,27.20
2022-08-25T16:46:13.372Z,27.20
2022-08-25T16:48:38.288Z,27.20
2022-08-25T16:51:02.312Z,27.20
2022-08-25T16:53:45.471Z,27.20
2022-08-25T16:56:13.951Z,27.10
2022-08-25T16:58:38.454Z,27.10
2022-08-25T17:01:09.524Z,27.10
2022-08-25T17:03:34.949Z,27.10
2022-08-25T17:06:01.042Z,27.00
2022-08-25T17:08:30.960Z,27.00
2022-08-25T17:10:54.832Z,27.00
2022-08-25T17:13:19.895Z,26.90
2022-08-25T17:15:46.912Z,26.90
2022-08-25T17:18:12.829Z,26.90
2022-08-25T17:20:38.282Z,26.80
2022-08-25T17:23:02.191Z,26.80
2022-08-25T17:25:37.355Z,26.70
2022-08-25T17:28:07.221Z,26.70
2022-08-25T17:30:40.102Z,26.70
2022-08-25T17:33:04.143Z,26.60
2022-08-25T17:35:27.919Z,26.60
2022-08-25T17:37:51.659Z,26.50
2022-08-25T17:40:17.228Z,26.50
2022-08-25T17:42:41.278Z,26.50
2022-08-25T17:45:06.717Z,26.40
2022-08-25T17:47:32.221Z,26.30
2022-08-25T17:49:57.179Z,26.30
2022-08-25T17:52:25.468Z,26.20
2022-08-25T17:54:49.533Z,26.20
2022-08-25T17:57:16.830Z,26.10
2022-08-25T17:59:40.690Z,26.10
2022-08-25T18:02:04.866Z,26.10
2022-08-25T18:04:30.038Z,26.00
2022-08-25T18:06:53.863Z,25.90
2022-08-25T18:09:19.004Z,25.90
2022-08-25T18:11:43.265Z,25.80
2022-08-25T18:14:07.002Z,25.80
2022-08-25T18:16:34.759Z,25.70
2022-08-25T18:18:58.959Z,25.70
2022-08-25T18:21:25.572Z,25.60
2022-08-25T18:23:55.964Z,25.50
2022-08-25T18:26:21.909Z,25.40
2022-08-25T18:28:49.335Z,25.40
2022-08-25T18:31:13.788Z,25.30
2022-08-25T18:33:41.594Z,25.30
2022-08-25T18:36:05.852Z,25.20
2022-08-25T18:38:48.342Z,25.10
2022-08-25T18:41:13.158Z,25.00
2022-08-25T18:43:37.347Z,25.00
2022-08-25T18:46:04.593Z,24.90
2022-08-25T18:48:29.266Z,24.90
2022-08-25T18:50:54.625Z,24.80
2022-08-25T18:53:19.209Z,24.70
2022-08-25T18:56:01.877Z,24.70
2022-08-25T18:58:28.301Z,24.60
2022-08-25T19:00:52.600Z,24.60
2022-08-25T19:03:18.593Z,24.50
2022-08-25T19:05:45.953Z,24.40
2022-08-25T19:08:21.817Z,24.40
2022-08-25T19:10:50.845Z,24.30
2022-08-25T19:13:15.994Z,24.30
2022-08-25T19:15:41.903Z,24.20
2022-08-25T19:18:09.829Z,24.20
2022-08-25T19:20:35.043Z,24.10
2022-08-25T19:22:59.727Z,24.10
2022-08-25T19:25:25.095Z,24.00
2022-08-25T19:27:58.532Z,23.90
2022-08-25T19:30:29.717Z,23.80
2022-08-25T19:32:54.583Z,23.80
2022-08-25T19:35:28.008Z,23.70
2022-08-25T19:37:54.923Z,23.70
2022-08-25T19:40:20.422Z,23.60
2022-08-25T19:42:44.084Z,23.50
2022-08-25T19:45:12.002Z,23.50
2022-08-25T19:47:37.683Z,23.40
2022-08-25T19:50:01.366Z,23.40
2022-08-25T19:52:26.559Z,23.40
2022-08-25T19:54:50.485Z,23.30
2022-08-25T19:57:28.657Z,23.30
2022-08-25T20:00:00.540Z,23.20
2022-08-25T20:02:30.019Z,23.20
2022-08-25T20:04:59.552Z,23.10
2022-08-25T20:07:27.610Z,23.10
2022-08-25T20:09:51.840Z,23.10
2022-08-25T20:14:44.151Z,23.00
2022-08-25T20:17:14.562Z,23.00
2022-08-25T20:19:48.746Z,22.90
2022-08-25T20:22:17.754Z,22.80
2022-08-25T20:24:55.760Z,22.80
2022-08-25T20:27:22.015Z,22.70
2022-08-25T20:29:46.103Z,22.70
2022-08-25T20:32:09.911Z,22.70
2022-08-25T20:34:35.237Z,22.60
2022-08-25T20:36:59.200Z,22.60
2022-08-25T20:39:25.254Z,22.50
2022-08-25T20:41:49.082Z,22.50
2022-08-25T20:44:12.810Z,22.50
2022-08-25T20:46:36.895Z,22.40
2022-08-25T20:49:02.031Z,22.40
2022-08-25T20:51:26.807Z,22.30
2022-08-25T20:53:50.469Z,22.30
2022-08-25T20:56:18.935Z,22.30
2022-08-25T20:58:43.743Z,22.20
2022-08-25T21:01:09.312Z,22.20
2022-08-25T21:03:34.344Z,22.10
2022-08-25T21:05:58.352Z,22.10
2022-08-25T21:08:22.017Z,22.10
2022-08-25T21:10:47.896Z,22.00
2022-08-25T21:13:12.971Z,22.00
2022-08-25T21:15:36.690Z,21.90
2022-08-25T21:18:00.450Z,21.90
2022-08-25T21:20:25.956Z,21.80
2022-08-25T21:22:49.586Z,21.80
2022-08-25T21:25:14.583Z,21.80
2022-08-25T21:27:38.214Z,21.80
2022-08-25T21:30:03.787Z,21.70
2022-08-25T21:32:27.495Z,21.70
2022-08-25T21:34:54.208Z,21.70
2022-08-25T21:37:17.877Z,21.60
2022-08-25T21:39:41.523Z,21.60
2022-08-25T21:42:07.226Z,21.60
2022-08-25T21:44:32.835Z,21.60
2022-08-25T21:46:58.319Z,21.50
2022-08-25T21:49:22.175Z,21.50
2022-08-25T21:51:47.107Z,21.50
2022-08-25T21:54:15.378Z,21.50
2022-08-25T21:56:42.022Z,21.50
2022-08-25T21:59:08.032Z,21.50
2022-08-25T22:01:31.734Z,21.50
2022-08-25T22:03:56.826Z,21.50
2022-08-25T22:06:22.648Z,21.50
2022-08-25T22:08:46.335Z,21.50
2022-08-25T22:11:11.987Z,21.50
2022-08-25T22:13:38.646Z,21.50
2022-08-25T22:16:05.454Z,21.50
2022-08-25T22:18:29.926Z,21.40
2022-08-25T22:20:55.039Z,21.40
2022-08-25T22:23:20.713Z,21.40
2022-08-25T22:25:44.445Z,21.40
2022-08-25T22:28:08.410Z,21.40
2022-08-25T22:30:39.682Z,21.40
2022-08-25T22:33:05.037Z,21.40
2022-08-25T22:35:35.691Z,21.40
2022-08-25T22:38:01.095Z,21.40
2022-08-25T22:40:25.240Z,21.40
2022-08-25T22:42:50.616Z,21.40
2022-08-25T22:45:14.353Z,21.40
2022-08-25T22:47:38.819Z,21.40
2022-08-25T22:50:06.427Z,21.40
2022-08-25T22:52:33.185Z,21.40
2022-08-25T22:54:58.935Z,21.40
2022-08-25T22:57:22.768Z,21.40
2022-08-25T22:59:46.451Z,21.40
2022-08-25T23:02:13.450Z,21.40
2022-08-25T23:04:41.571Z,21.40
2022-08-25T23:07:07.978Z,21.40
2022-08-25T23:09:33.776Z,21.40
2022-08-25T23:11:59.972Z,21.30
2022-08-25T23:14:24.722Z,21.30
2022-08-25T23:16:51.137Z,21.30
2022-08-25T23:19:15.976Z,21.30
2022-08-25T23:21:57.017Z,21.30
2022-08-25T23:24:29.262Z,21.30
2022-08-25T23:26:54.200Z,21.20
2022-08-25T23:29:19.558Z,21.30
2022-08-25T23:31:44.267Z,21.20
2022-08-25T23:34:08.332Z,21.20
2022-08-25T23:36:32.342Z,21.20
2022-08-25T23:38:56.211Z,21.20
2022-08-25T23:41:23.695Z,21.20
2022-08-25T23:43:49.039Z,21.20
2022-08-25T23:46:14.756Z,21.20
2022-08-25T23:48:38.768Z,21.10
2022-08-25T23:51:02.628Z,21.10
2022-08-25T23:53:26.911Z,21.10
2022-08-25T23:55:53.072Z,21.10
2022-08-25T23:58:17.940Z,21.00
